Time;durP1;ratioP1;P1;durP2;ratioP2;P2;SDS_P1;SDS_P2;PMS_P1;PMS_P2;Temp;Humidity;BMP_temperature;BMP_pressure;BME280_temperature;BME280_humidity;BME280_pressure;Samples;Min_cycle;Max_cycle;Signal;HPM_P1;HPM_P2
2023/06/06 00:00:28;;;;;;;0.13;0.13;;;;;;;14.33;66.16;97624.28;4989627;28;20046;-71
2023/06/06 00:02:57;;;;;;;0.17;0.17;;;;;;;14.24;66.37;97620.22;4975137;28;20407;-71
2023/06/06 00:05:25;;;;;;;0.10;0.10;;;;;;;14.25;66.12;97612.97;4974688;28;20066;-71
2023/06/06 00:07:54;;;;;;;0.10;0.10;;;;;;;14.33;65.56;97608.16;4983838;28;20046;-71
2023/06/06 00:10:22;;;;;;;0.20;0.20;;;;;;;14.13;66.09;97612.84;4979334;28;20052;-71
2023/06/06 00:12:52;;;;;;;0.17;0.17;;;;;;;13.90;67.12;97616.13;4973783;28;20039;-71
2023/06/06 00:15:20;;;;;;;0.10;0.10;;;;;;;13.88;67.38;97612.00;4974699;28;20074;-71
2023/06/06 00:17:53;;;;;;;0.10;0.10;;;;;;;14.04;66.44;97613.31;4982222;28;20051;-71
2023/06/06 00:20:20;;;;;;;0.20;0.20;;;;;;;13.96;66.26;97609.03;4985743;28;20046;-70
2023/06/06 00:22:53;;;;;;;0.13;0.13;;;;;;;13.89;66.97;97601.06;4980855;28;20550;-70
2023/06/06 00:25:21;;;;;;;;;;;;;;;14.20;65.56;97599.41;4974904;28;20043;-70
2023/06/06 00:27:49;;;;;;;0.10;0.10;;;;;;;13.91;66.27;97604.31;4979505;28;19926;-70
2023/06/06 00:30:17;;;;;;;0.17;0.17;;;;;;;13.64;67.57;97602.81;4956599;28;20391;-70
2023/06/06 00:32:45;;;;;;;0.10;0.10;;;;;;;13.64;67.59;97602.00;4982074;28;20062;-70
2023/06/06 00:35:13;;;;;;;0.10;0.10;;;;;;;13.48;68.13;97614.88;4956315;28;20133;-70
2023/06/06 00:37:40;;;;;;;0.10;0.10;;;;;;;13.53;67.92;97607.00;4955999;28;20042;-70
2023/06/06 00:40:09;;;;;;;0.10;0.10;;;;;;;13.54;67.87;97615.88;4955930;28;20051;-70
2023/06/06 00:42:39;;;;;;;0.22;0.22;;;;;;;13.40;68.29;97608.91;4984548;28;20026;-70
2023/06/06 00:45:08;;;;;;;0.13;0.13;;;;;;;13.31;68.61;97608.31;4963264;28;20518;-70
2023/06/06 00:47:35;;;;;;;0.10;0.10;;;;;;;13.29;68.54;97607.69;4960327;28;20502;-71
2023/06/06 00:50:03;;;;;;;0.20;0.20;;;;;;;13.29;68.19;97596.19;4963846;28;20053;-70
2023/06/06 00:52:31;;;;;;;0.20;0.20;;;;;;;13.21;68.65;97603.41;4963110;28;20050;-70
2023/06/06 00:54:59;;;;;;;0.30;0.30;;;;;;;13.33;68.38;97608.94;4956415;28;20115;-70
2023/06/06 00:57:27;;;;;;;0.10;0.10;;;;;;;13.37;68.24;97612.03;4956145;28;20046;-71
2023/06/06 00:59:57;;;;;;;0.10;0.10;;;;;;;13.49;67.37;97599.59;4981052;28;20046;-71
2023/06/06 01:02:25;;;;;;;0.20;0.20;;;;;;;13.47;66.97;97609.72;4983193;28;20045;-71
2023/06/06 01:04:53;;;;;;;0.20;0.20;;;;;;;13.53;67.15;97611.53;4973568;28;20042;-71
2023/06/06 01:07:20;;;;;;;0.20;0.20;;;;;;;13.51;67.14;97605.56;4972791;28;20053;-71
2023/06/06 01:09:48;;;;;;;0.10;0.10;;;;;;;13.37;67.70;97617.38;4957566;28;20466;-71
2023/06/06 01:12:24;;;;;;;0.20;0.20;;;;;;;13.43;67.73;97614.66;4972582;28;20473;-69
2023/06/06 01:14:59;;;;;;;0.40;0.40;;;;;;;13.45;67.68;97620.66;4957441;28;20061;-71
2023/06/06 01:17:27;;;;;;;0.10;0.10;;;;;;;13.40;67.84;97620.44;4979548;28;20038;-71
2023/06/06 01:19:56;;;;;;;0.20;0.20;;;;;;;13.50;67.53;97620.81;4959716;28;20054;-72
2023/06/06 01:22:27;;;;;;;0.20;0.20;;;;;;;13.60;67.60;97618.50;4975143;28;20038;-72
2023/06/06 01:24:56;;;;;;;0.20;0.20;;;;;;;13.68;67.13;97613.97;4973466;28;20051;-72
2023/06/06 01:27:24;;;;;;;0.10;0.10;;;;;;;13.67;67.15;97610.44;4964342;28;20046;-72
2023/06/06 01:29:52;;;;;;;0.20;0.20;;;;;;;13.66;67.27;97608.81;4951773;28;20138;-70
2023/06/06 01:32:23;;;;;;;0.10;0.10;;;;;;;13.61;67.52;97605.91;4953620;28;20039;-71
2023/06/06 01:34:57;;;;;;;0.20;0.20;;;;;;;13.58;67.95;97603.69;4951573;28;20486;-71
2023/06/06 01:37:33;;;;;;;0.10;0.10;;;;;;;13.31;69.12;97604.81;4984294;28;20043;-71
2023/06/06 01:40:04;;;;;;;0.13;0.13;;;;;;;13.44;68.59;97607.44;4965598;28;20149;-69
2023/06/06 01:42:32;;;;;;;0.20;0.20;;;;;;;13.39;68.73;97605.38;4952166;28;20039;-69
2023/06/06 01:45:01;;;;;;;0.20;0.20;;;;;;;13.44;68.60;97604.75;4958769;28;20050;-70
2023/06/06 01:47:28;;;;;;;0.30;0.30;;;;;;;13.66;67.77;97599.94;4983167;28;20046;-70
2023/06/06 01:49:57;;;;;;;0.13;0.13;;;;;;;13.68;67.71;97601.38;4977016;28;20146;-70
2023/06/06 01:52:28;;;;;;;0.10;0.10;;;;;;;13.68;68.00;97598.69;4965069;28;20055;-69
2023/06/06 01:54:58;;;;;;;0.28;0.28;;;;;;;13.73;68.01;97600.72;4957839;28;20066;-69
2023/06/06 01:57:26;;;;;;;0.20;0.20;;;;;;;13.79;67.82;97599.88;4957282;28;20047;-70
2023/06/06 01:59:54;;;;;;;0.15;0.15;;;;;;;13.84;67.66;97598.19;4942433;28;20519;-69
2023/06/06 02:02:22;;;;;;;0.10;0.10;;;;;;;13.85;68.07;97593.63;4952277;28;20410;-69
2023/06/06 02:04:50;;;;;;;0.15;0.15;;;;;;;13.88;68.15;97588.66;4971137;28;20057;-69
2023/06/06 02:07:17;;;;;;;0.10;0.10;;;;;;;14.11;68.16;97589.97;4980656;28;20044;-69
2023/06/06 02:09:45;;;;;;;0.90;0.15;;;;;;;14.26;67.85;97569.81;4963725;28;20078;-71
2023/06/06 02:12:14;;;;;;;0.10;0.10;;;;;;;14.40;67.79;97570.56;4961071;28;20133;-71
2023/06/06 02:14:42;;;;;;;0.10;0.10;;;;;;;14.50;67.90;97567.38;4963202;28;20441;-69
2023/06/06 02:17:10;;;;;;;0.13;0.13;;;;;;;14.58;67.86;97559.88;4977439;28;20050;-68
2023/06/06 02:19:38;;;;;;;0.22;0.22;;;;;;;14.66;67.88;97564.94;4982195;28;20046;-69
2023/06/06 02:22:06;;;;;;;0.20;0.20;;;;;;;14.72;68.24;97559.75;4972360;28;20512;-69
2023/06/06 02:24:35;;;;;;;0.20;0.20;;;;;;;14.72;68.52;97557.06;4950733;28;20038;-69
2023/06/06 02:27:03;;;;;;;0.10;0.10;;;;;;;14.74;68.31;97566.56;4969071;28;20439;-69
2023/06/06 02:29:32;;;;;;;0.10;0.10;;;;;;;14.71;68.75;97560.78;4962681;28;20043;-69
2023/06/06 02:32:00;;;;;;;0.17;0.17;;;;;;;14.80;68.52;97559.47;4972243;28;20102;-68
2023/06/06 02:34:28;;;;;;;0.10;0.10;;;;;;;14.85;68.80;97552.34;4953169;28;20422;-68
2023/06/06 02:36:57;;;;;;;0.10;0.10;;;;;;;14.97;68.85;97550.56;4962776;28;20053;-68
2023/06/06 02:39:24;;;;;;;0.22;0.22;;;;;;;15.02;68.91;97553.44;4980401;28;20117;-69
2023/06/06 02:41:52;;;;;;;0.10;0.10;;;;;;;14.98;69.13;97551.41;4980388;28;20059;-69
2023/06/06 02:44:20;;;;;;;0.20;0.10;;;;;;;14.98;69.12;97559.47;4961682;28;20046;-69
2023/06/06 02:46:49;;;;;;;0.17;0.17;;;;;;;14.86;70.13;97551.31;4965948;28;20077;-69
2023/06/06 02:49:17;;;;;;;0.13;0.13;;;;;;;14.94;70.07;97556.41;4963748;28;20050;-69
2023/06/06 02:51:44;;;;;;;0.20;0.20;;;;;;;14.93;70.46;97552.09;5014905;23;20123;-73
2023/06/06 02:54:12;;;;;;;0.20;0.20;;;;;;;14.98;70.38;97557.59;5007906;28;20060;-70
2023/06/06 02:56:40;;;;;;;0.10;0.10;;;;;;;15.05;70.42;97555.66;5030890;28;20041;-70
2023/06/06 02:59:08;;;;;;;0.15;0.15;;;;;;;14.98;70.84;97562.97;5020672;28;20140;-70
2023/06/06 03:01:36;;;;;;;0.10;0.10;;;;;;;15.01;70.90;97567.91;5021361;28;20476;-71
2023/06/06 03:04:05;;;;;;;0.13;0.13;;;;;;;14.92;71.96;97565.75;5021276;28;20060;-71
2023/06/06 03:06:36;;;;;;;0.28;0.28;;;;;;;14.94;72.03;97564.47;5030369;28;20084;-71
2023/06/06 03:09:04;;;;;;;0.20;0.20;;;;;;;14.90;72.27;97552.53;5031872;28;20557;-73
2023/06/06 03:11:33;;;;;;;0.10;0.10;;;;;;;14.90;72.94;97565.13;5019218;28;20088;-71
2023/06/06 03:14:01;;;;;;;0.20;0.20;;;;;;;14.76;73.52;97561.75;5036966;28;20041;-72
2023/06/06 03:16:34;;;;;;;0.20;0.20;;;;;;;14.78;73.63;97565.03;5018886;28;20115;-71
2023/06/06 03:19:03;;;;;;;0.10;0.10;;;;;;;14.71;74.51;97568.84;5014914;28;20044;-72
2023/06/06 03:21:34;;;;;;;0.20;0.20;;;;;;;14.77;74.47;97574.16;5016688;28;20046;-73
2023/06/06 03:24:02;;;;;;;0.20;0.20;;;;;;;14.78;74.82;97559.66;5032050;28;20042;-74
2023/06/06 03:26:31;;;;;;;0.10;0.10;;;;;;;14.67;75.78;97563.09;5015742;28;20056;-71
2023/06/06 03:29:01;;;;;;;0.10;0.10;;;;;;;14.69;75.81;97571.75;5021931;28;20037;-72
2023/06/06 03:31:33;;;;;;;0.10;0.10;;;;;;;14.72;75.88;97568.63;5045812;28;20056;-73
2023/06/06 03:34:01;;;;;;;0.25;0.25;;;;;;;14.68;76.53;97559.34;5040168;28;20036;-73
2023/06/06 03:36:35;;;;;;;0.85;0.10;;;;;;;14.53;77.89;97566.97;5018569;28;20042;-71
2023/06/06 03:39:05;;;;;;;0.20;0.20;;;;;;;14.56;78.04;97572.69;5036586;28;20045;-73
2023/06/06 03:41:32;;;;;;;0.13;0.13;;;;;;;14.54;78.53;97568.56;5044213;28;20099;-72
2023/06/06 03:44:01;;;;;;;0.10;0.10;;;;;;;14.56;78.89;97575.38;5023758;28;20128;-73
2023/06/06 03:46:30;;;;;;;0.10;0.10;;;;;;;14.50;78.78;97553.97;5019950;28;20133;-72
2023/06/06 03:48:58;;;;;;;0.25;0.20;;;;;;;14.52;79.27;97558.06;5040894;28;20052;-72
2023/06/06 03:51:26;;;;;;;0.20;0.20;;;;;;;14.55;78.92;97562.97;5045520;28;20072;-72
2023/06/06 03:53:55;;;;;;;0.20;0.20;;;;;;;14.53;79.26;97565.09;5017302;28;20087;-71
2023/06/06 03:56:24;;;;;;;0.10;0.10;;;;;;;14.53;79.32;97561.59;5009404;28;20417;-71
2023/06/06 03:58:52;;;;;;;0.10;0.10;;;;;;;14.51;79.56;97563.66;5043952;28;20484;-71
2023/06/06 04:01:21;;;;;;;0.17;0.17;;;;;;;14.40;80.28;97562.50;5027511;28;20486;-72
2023/06/06 04:03:48;;;;;;;0.17;0.17;;;;;;;14.40;80.04;97565.19;5043085;28;20059;-71
2023/06/06 04:06:16;;;;;;;0.15;0.15;;;;;;;14.46;79.79;97567.00;5019999;28;20076;-71
2023/06/06 04:08:44;;;;;;;0.10;0.10;;;;;;;14.46;80.07;97568.84;5026158;28;20049;-71
2023/06/06 04:11:14;;;;;;;0.10;0.10;;;;;;;14.43;80.81;97572.00;5031956;28;20971;-71
2023/06/06 04:13:42;;;;;;;0.20;0.20;;;;;;;14.37;80.96;97570.16;5014642;28;20041;-70
2023/06/06 04:16:11;;;;;;;0.10;0.10;;;;;;;14.37;80.93;97573.66;5015877;28;20077;-70
2023/06/06 04:18:38;;;;;;;0.20;0.20;;;;;;;14.32;81.06;97571.66;5040208;28;20072;-70
2023/06/06 04:21:06;;;;;;;0.10;0.10;;;;;;;14.18;81.74;97578.13;5022349;28;20049;-70
2023/06/06 04:23:34;;;;;;;0.10;0.10;;;;;;;14.26;81.01;97575.19;5018278;28;20504;-70
2023/06/06 04:26:03;;;;;;;0.20;0.20;;;;;;;14.21;82.01;97574.22;5024665;28;20095;-71
2023/06/06 04:28:32;;;;;;;0.20;0.20;;;;;;;14.18;82.33;97577.31;5009886;28;20033;-71
2023/06/06 04:31:00;;;;;;;0.30;0.30;;;;;;;14.24;81.60;97573.75;5016820;28;20098;-71
2023/06/06 04:33:31;;;;;;;0.20;0.20;;;;;;;14.26;82.01;97577.03;5032220;28;20470;-71
2023/06/06 04:36:00;;;;;;;0.13;0.13;;;;;;;14.36;81.01;97579.25;5030596;28;20537;-71
2023/06/06 04:38:29;;;;;;;0.20;0.20;;;;;;;14.32;81.36;97579.69;5024116;28;20042;-71
2023/06/06 04:41:01;;;;;;;0.22;0.22;;;;;;;14.34;81.62;97582.13;5039742;28;20652;-71
2023/06/06 04:43:51;;;;;;;0.17;0.17;;;;;;;14.32;81.38;97577.00;5023206;28;20061;-71
2023/06/06 04:46:21;;;;;;;0.30;0.30;;;;;;;14.27;82.13;97576.00;5046377;28;20116;-71
2023/06/06 04:48:53;;;;;;;0.20;0.20;;;;;;;14.31;82.05;97577.22;5035727;28;20488;-71
2023/06/06 04:51:22;;;;;;;0.10;0.10;;;;;;;14.35;81.79;97583.78;5021054;28;20136;-71
2023/06/06 04:53:50;;;;;;;0.10;0.10;;;;;;;14.37;81.60;97579.03;5037587;28;20129;-70
2023/06/06 04:56:18;;;;;;;0.13;0.13;;;;;;;14.34;81.90;97580.28;5034470;28;20400;-71
2023/06/06 04:58:48;;;;;;;0.20;0.20;;;;;;;14.38;81.33;97586.03;5042629;28;20042;-72
2023/06/06 05:01:17;;;;;;;0.20;0.20;;;;;;;14.37;81.44;97584.41;5042261;28;20040;-72
2023/06/06 05:03:46;;;;;;;0.10;0.10;;;;;;;14.38;81.61;97586.03;5044843;28;20055;-71
2023/06/06 05:06:13;;;;;;;0.20;0.20;;;;;;;14.43;81.86;97585.44;5045989;28;20048;-72
2023/06/06 05:08:44;;;;;;;0.20;0.20;;;;;;;14.43;81.69;97588.91;5046873;28;20037;-72
2023/06/06 05:11:12;;;;;;;0.20;0.20;;;;;;;14.43;81.82;97593.50;5044741;28;20048;-70
2023/06/06 05:13:40;;;;;;;0.10;0.10;;;;;;;14.41;81.78;97591.00;5042326;28;20045;-72
2023/06/06 05:16:08;;;;;;;0.22;0.22;;;;;;;14.42;81.77;97589.97;5045745;28;20040;-72
2023/06/06 05:18:37;;;;;;;0.10;0.10;;;;;;;14.40;82.03;97593.91;5035856;28;20516;-70
2023/06/06 05:21:06;;;;;;;0.10;0.10;;;;;;;14.31;82.50;97596.03;5030129;28;20050;-73
2023/06/06 05:23:34;;;;;;;0.10;0.10;;;;;;;14.37;81.94;97600.50;5038616;28;20046;-71
2023/06/06 05:26:02;;;;;;;0.10;0.10;;;;;;;14.32;82.53;97595.81;5035623;28;20029;-70
2023/06/06 05:28:29;;;;;;;0.10;0.10;;;;;;;14.32;82.92;97598.50;5048080;28;20040;-70
2023/06/06 05:30:57;;;;;;;0.10;0.10;;;;;;;14.29;82.94;97598.91;5039513;28;20137;-70
2023/06/06 05:33:25;;;;;;;0.20;0.20;;;;;;;14.27;83.00;97592.94;5029201;28;20051;-71
2023/06/06 05:35:55;;;;;;;0.20;0.20;;;;;;;14.32;82.79;97603.03;5041062;28;20076;-71
2023/06/06 05:38:25;;;;;;;0.15;0.15;;;;;;;14.33;82.88;97597.44;5041101;28;20049;-70
2023/06/06 05:40:53;;;;;;;0.20;0.20;;;;;;;14.34;82.52;97596.38;5038917;28;20046;-71
2023/06/06 05:43:20;;;;;;;0.10;0.10;;;;;;;14.34;83.14;97599.06;5040650;28;20465;-70
2023/06/06 05:45:48;;;;;;;0.10;0.10;;;;;;;14.39;83.16;97605.66;5038825;28;20049;-71
2023/06/06 05:48:15;;;;;;;0.20;0.20;;;;;;;14.28;83.85;97612.56;5041707;28;20496;-71
2023/06/06 05:50:43;;;;;;;0.20;0.20;;;;;;;14.35;82.94;97607.94;5040281;28;20056;-70
2023/06/06 05:53:12;;;;;;;0.10;0.10;;;;;;;14.27;83.49;97595.63;5034176;28;20045;-72
2023/06/06 05:55:40;;;;;;;0.43;0.20;;;;;;;14.36;83.49;97603.41;5039454;28;20434;-72
2023/06/06 05:58:07;;;;;;;0.20;0.20;;;;;;;14.38;83.12;97607.53;5045254;28;20090;-70
2023/06/06 06:00:35;;;;;;;0.20;0.20;;;;;;;14.26;83.38;97595.84;5042777;28;20041;-72
2023/06/06 06:03:03;;;;;;;0.20;0.20;;;;;;;14.31;83.38;97609.44;5029837;28;20048;-70
2023/06/06 06:05:31;;;;;;;0.15;0.15;;;;;;;14.30;83.56;97608.63;5041795;28;20130;-70
2023/06/06 06:08:00;;;;;;;0.15;0.15;;;;;;;14.32;83.70;97603.88;5042396;28;20547;-71
2023/06/06 06:10:30;;;;;;;0.17;0.17;;;;;;;14.35;83.82;97610.63;5043242;28;20111;-72
2023/06/06 06:12:58;;;;;;;0.20;0.20;;;;;;;14.40;83.56;97612.72;5041879;28;20144;-71
2023/06/06 06:15:26;;;;;;;0.20;0.20;;;;;;;14.43;83.36;97614.97;5042660;28;20044;-71
2023/06/06 06:17:54;;;;;;;0.20;0.20;;;;;;;14.44;83.13;97613.91;5042436;28;20041;-72
2023/06/06 06:20:22;;;;;;;0.10;0.10;;;;;;;14.46;83.04;97617.19;5034021;28;20041;-71
2023/06/06 06:22:49;;;;;;;0.17;0.17;;;;;;;14.45;84.00;97618.22;5039667;28;20057;-71
2023/06/06 06:25:17;;;;;;;0.20;0.20;;;;;;;14.46;83.50;97614.50;5043268;28;20051;-71
2023/06/06 06:27:47;;;;;;;0.55;0.17;;;;;;;14.48;83.63;97613.25;5033298;28;20045;-71
2023/06/06 06:30:16;;;;;;;0.20;0.20;;;;;;;14.50;83.72;97616.56;5041201;28;20090;-71
2023/06/06 06:32:45;;;;;;;0.22;0.22;;;;;;;14.54;83.42;97616.91;5042506;28;20404;-72
2023/06/06 06:35:13;;;;;;;0.13;0.13;;;;;;;14.54;83.33;97622.28;5024729;28;20063;-71
2023/06/06 06:37:40;;;;;;;0.10;0.10;;;;;;;14.54;83.51;97619.59;5042096;28;20053;-72
2023/06/06 06:40:10;;;;;;;0.13;0.13;;;;;;;14.52;83.98;97622.53;5034743;28;20137;-73
2023/06/06 06:42:40;;;;;;;0.10;0.10;;;;;;;14.57;83.99;97624.56;5032697;28;20420;-71
2023/06/06 06:45:23;;;;;;;0.10;0.10;;;;;;;14.60;83.67;97629.50;5036865;28;20029;-71
2023/06/06 06:47:51;;;;;;;0.20;0.20;;;;;;;14.59;83.72;97625.97;5040361;28;20126;-72
2023/06/06 06:50:18;;;;;;;0.20;0.20;;;;;;;14.55;83.82;97638.19;5027724;28;20041;-70
2023/06/06 06:52:46;;;;;;;0.20;0.20;;;;;;;14.54;83.78;97636.53;5045296;28;20132;-72
2023/06/06 06:55:14;;;;;;;0.20;0.20;;;;;;;14.45;84.57;97632.50;5040289;28;20053;-71
2023/06/06 06:57:43;;;;;;;0.10;0.10;;;;;;;14.45;84.36;97637.03;5043295;28;20120;-72
2023/06/06 07:00:14;;;;;;;0.10;0.10;;;;;;;14.51;84.62;97633.50;5045811;28;20041;-72
2023/06/06 07:02:44;;;;;;;0.10;0.10;;;;;;;14.58;83.66;97634.25;5043831;28;20528;-72
2023/06/06 07:05:15;;;;;;;0.20;0.20;;;;;;;14.55;84.53;97632.00;5046750;28;20095;-71
2023/06/06 07:07:44;;;;;;;0.20;0.20;;;;;;;14.58;84.70;97631.56;5045502;28;20097;-71
2023/06/06 07:10:13;;;;;;;0.10;0.10;;;;;;;14.58;84.24;97636.94;5047342;28;20037;-71
2023/06/06 07:12:41;;;;;;;0.20;0.20;;;;;;;14.59;84.25;97638.59;5045912;28;20513;-71
2023/06/06 07:15:09;;;;;;;0.10;0.10;;;;;;;14.63;83.89;97635.25;5046301;28;20060;-71
2023/06/06 07:17:37;;;;;;;0.20;0.20;;;;;;;14.54;83.78;97638.41;5046269;28;20041;-71
2023/06/06 07:20:08;;;;;;;0.10;0.10;;;;;;;14.57;84.35;97638.81;5027917;28;20363;-71
2023/06/06 07:22:36;;;;;;;0.10;0.10;;;;;;;14.61;84.16;97631.97;5044574;28;20052;-71
2023/06/06 07:25:05;;;;;;;0.10;0.10;;;;;;;14.62;84.08;97633.63;5034000;28;20041;-71
2023/06/06 07:27:35;;;;;;;0.20;0.20;;;;;;;14.50;84.24;97634.53;5045560;28;20099;-71
2023/06/06 07:30:04;;;;;;;0.10;0.10;;;;;;;14.43;85.20;97629.19;5034644;28;20072;-71
2023/06/06 07:32:31;;;;;;;0.20;0.20;;;;;;;14.49;85.52;97631.03;5037547;28;20075;-71
2023/06/06 07:35:00;;;;;;;0.15;0.15;;;;;;;14.56;84.63;97626.41;5045823;28;20454;-70
2023/06/06 07:37:30;;;;;;;0.10;0.10;;;;;;;14.50;84.23;97632.66;5046092;28;20033;-71
2023/06/06 07:39:58;;;;;;;0.20;0.20;;;;;;;14.51;84.73;97639.69;5043870;28;20163;-70
2023/06/06 07:42:25;;;;;;;0.20;0.20;;;;;;;14.51;85.01;97630.81;5039212;28;20041;-73
2023/06/06 07:44:55;;;;;;;0.10;0.10;;;;;;;14.60;85.07;97635.69;5037737;28;20496;-71
2023/06/06 07:47:23;;;;;;;0.10;0.10;;;;;;;14.64;85.22;97638.75;5028159;28;20570;-71
2023/06/06 07:49:51;;;;;;;0.10;0.10;;;;;;;14.68;84.91;97637.28;5028666;28;20045;-71
2023/06/06 07:52:18;;;;;;;0.10;0.10;;;;;;;14.69;84.62;97637.06;5046744;28;20056;-71
2023/06/06 07:54:47;;;;;;;0.10;0.10;;;;;;;14.71;84.81;97630.66;5045342;28;20049;-71
2023/06/06 07:57:16;;;;;;;0.13;0.13;;;;;;;14.75;84.77;97635.34;5046588;28;20029;-70
2023/06/06 07:59:45;;;;;;;0.20;0.20;;;;;;;14.72;84.98;97632.28;5027206;28;20041;-71
2023/06/06 08:02:14;;;;;;;0.20;0.20;;;;;;;14.72;84.78;97635.81;5042048;28;20583;-71
2023/06/06 08:04:45;;;;;;;0.10;0.10;;;;;;;14.73;84.62;97634.75;5042938;28;20065;-70
2023/06/06 08:07:13;;;;;;;0.10;0.10;;;;;;;14.74;84.93;97632.91;5047417;28;20432;-70
2023/06/06 08:09:41;;;;;;;0.20;0.20;;;;;;;14.73;84.69;97631.25;5042116;28;20038;-70
2023/06/06 08:12:12;;;;;;;0.20;0.20;;;;;;;14.66;84.79;97639.34;5047998;28;20041;-70
2023/06/06 08:14:39;;;;;;;0.10;0.10;;;;;;;14.66;84.97;97639.34;5042108;28;20041;-70
2023/06/06 08:17:07;;;;;;;0.20;0.20;;;;;;;14.61;85.42;97639.19;5052242;28;20066;-70
2023/06/06 08:19:35;;;;;;;0.17;0.17;;;;;;;14.63;84.80;97629.88;5044793;28;20057;-70
2023/06/06 08:22:03;;;;;;;0.10;0.10;;;;;;;14.64;85.04;97631.50;5029606;28;20075;-70
2023/06/06 08:24:30;;;;;;;0.10;0.10;;;;;;;14.63;85.46;97634.44;5042953;28;20045;-70
2023/06/06 08:26:58;;;;;;;0.20;0.20;;;;;;;14.67;85.75;97632.94;5044015;28;20059;-73
2023/06/06 08:29:27;;;;;;;0.20;0.20;;;;;;;14.72;85.68;97633.13;5045525;28;20061;-70
2023/06/06 08:31:55;;;;;;;0.13;0.13;;;;;;;14.82;85.25;97630.75;5043786;28;20116;-71
2023/06/06 08:34:23;;;;;;;0.55;0.20;;;;;;;14.73;85.23;97634.75;5046916;28;20046;-72
2023/06/06 08:36:51;;;;;;;0.10;0.10;;;;;;;14.68;85.70;97634.59;5042288;28;20052;-72
2023/06/06 08:39:19;;;;;;;0.20;0.20;;;;;;;14.68;85.93;97637.28;5026975;28;20147;-73
2023/06/06 08:41:50;;;;;;;0.20;0.20;;;;;;;14.72;85.93;97633.13;5042547;28;20500;-73
2023/06/06 08:44:19;;;;;;;0.20;0.20;;;;;;;14.75;85.80;97629.16;5044951;28;20052;-70
2023/06/06 08:46:50;;;;;;;0.10;0.10;;;;;;;14.73;85.93;97634.75;5043015;28;20045;-73
2023/06/06 08:49:18;;;;;;;0.13;0.13;;;;;;;14.71;85.73;97633.34;5027007;28;20045;-71
2023/06/06 08:51:48;;;;;;;0.10;0.10;;;;;;;14.78;86.37;97634.91;5067939;23;20068;-71
2023/06/06 08:54:17;;;;;;;0.10;0.10;;;;;;;14.84;85.79;97647.47;5015010;28;20388;-70
2023/06/06 08:56:45;;;;;;;0.15;0.15;;;;;;;14.86;85.97;97642.69;5020839;28;20045;-71
2023/06/06 08:59:15;;;;;;;0.10;0.10;;;;;;;14.88;86.19;97647.84;5013133;28;20037;-71
2023/06/06 09:01:44;;;;;;;0.10;0.10;;;;;;;14.80;86.02;97646.28;5008858;28;20072;-71
2023/06/06 09:04:15;;;;;;;0.20;0.20;;;;;;;14.79;85.99;97644.63;5019249;28;20038;-70
2023/06/06 09:06:45;;;;;;;0.20;0.20;;;;;;;14.84;86.23;97652.84;5015905;28;20036;-70
2023/06/06 09:09:14;;;;;;;0.20;0.20;;;;;;;14.89;85.51;97655.69;5016436;28;20070;-71
2023/06/06 09:11:41;;;;;;;0.20;0.20;;;;;;;14.87;85.71;97649.72;5014756;28;20076;-70
2023/06/06 09:14:09;;;;;;;0.20;0.20;;;;;;;14.92;85.34;97655.25;5009542;28;20039;-71
2023/06/06 09:16:36;;;;;;;0.20;0.20;;;;;;;14.80;85.94;97657.00;5012551;28;20060;-74
2023/06/06 09:19:05;;;;;;;0.13;0.13;;;;;;;14.83;85.92;97656.59;5011275;28;20515;-71
2023/06/06 09:21:34;;;;;;;0.15;0.15;;;;;;;14.86;86.05;97663.38;5018345;28;20037;-71
2023/06/06 09:24:02;;;;;;;0.20;0.20;;;;;;;14.82;85.95;97660.31;5010745;28;20052;-71
2023/06/06 09:26:30;;;;;;;0.10;0.10;;;;;;;14.90;85.51;97660.03;5014754;28;20080;-70
2023/06/06 09:29:06;;;;;;;0.10;0.10;;;;;;;14.94;85.47;97658.56;5014519;28;20112;-71
2023/06/06 09:31:37;;;;;;;0.10;0.10;;;;;;;14.96;85.69;97663.69;5019815;28;20045;-70
2023/06/06 09:34:08;;;;;;;0.20;0.20;;;;;;;15.02;86.19;97663.66;5015637;28;20099;-71
2023/06/06 09:36:38;;;;;;;0.10;0.10;;;;;;;15.12;85.60;97665.81;5016087;28;20037;-71
2023/06/06 09:39:10;;;;;;;0.10;0.10;;;;;;;15.13;85.89;97664.78;5011847;28;20512;-72
2023/06/06 09:41:41;;;;;;;0.15;0.15;;;;;;;15.15;85.39;97660.00;5009453;28;20169;-71
2023/06/06 09:44:20;;;;;;;0.10;0.10;;;;;;;15.05;85.86;97662.38;5017092;28;20069;-71
2023/06/06 09:46:48;;;;;;;0.10;0.10;;;;;;;14.99;85.80;97666.75;5010862;28;20037;-72
2023/06/06 09:49:17;;;;;;;0.10;0.10;;;;;;;15.03;85.97;97662.59;5009791;28;20493;-71
2023/06/06 09:51:46;;;;;;;0.10;0.10;;;;;;;14.97;86.19;97660.78;5022442;28;20493;-71
2023/06/06 09:54:16;;;;;;;0.30;0.30;;;;;;;14.91;86.28;97658.16;4996364;28;20042;-71
2023/06/06 09:56:46;;;;;;;0.17;0.17;;;;;;;14.99;86.94;97666.75;5011011;28;20041;-71
2023/06/06 09:59:14;;;;;;;0.10;0.10;;;;;;;15.00;86.51;97659.53;5016234;28;20695;-70
2023/06/06 10:01:44;;;;;;;0.17;0.17;;;;;;;15.07;86.20;97666.47;5007821;28;20126;-71
2023/06/06 10:04:12;;;;;;;0.20;0.20;;;;;;;15.15;86.45;97665.41;5015951;28;20532;-71
2023/06/06 10:06:46;;;;;;;0.10;0.10;;;;;;;15.15;85.96;97656.50;5012848;28;20464;-72
2023/06/06 10:09:15;;;;;;;0.10;0.10;;;;;;;15.10;86.46;97664.41;5016936;28;20112;-72
2023/06/06 10:11:43;;;;;;;0.10;0.10;;;;;;;15.18;86.14;97658.72;5013570;28;20034;-72
2023/06/06 10:14:11;;;;;;;0.03;0.03;;;;;;;15.25;86.43;97662.19;5011346;28;20149;-72
2023/06/06 10:16:39;;;;;;;0.17;0.17;;;;;;;15.30;86.37;97662.34;5014022;28;20481;-72
2023/06/06 10:19:09;;;;;;;0.13;0.13;;;;;;;15.32;85.53;97660.25;5018003;28;20117;-72
2023/06/06 10:21:37;;;;;;;0.20;0.20;;;;;;;15.35;85.46;97662.50;5014247;28;20050;-73
2023/06/06 10:24:06;;;;;;;0.00;0.00;;;;;;;15.34;86.03;97658.16;5009397;28;20054;-73
2023/06/06 10:26:43;;;;;;;0.13;0.13;;;;;;;15.31;85.92;97655.91;5012407;28;20519;-71
2023/06/06 10:29:13;;;;;;;0.10;0.10;;;;;;;15.31;86.27;97655.91;5001565;28;20469;-72
2023/06/06 10:31:47;;;;;;;0.10;0.10;;;;;;;15.28;85.93;97661.72;5011369;28;20076;-72
2023/06/06 10:34:18;;;;;;;0.10;0.10;;;;;;;15.36;86.08;97661.47;5012067;28;20431;-73
2023/06/06 10:36:46;;;;;;;0.13;0.13;;;;;;;15.45;85.77;97654.72;5010363;28;20029;-71
2023/06/06 10:39:23;;;;;;;0.15;0.15;;;;;;;15.41;85.76;97656.22;5011322;28;20049;-73
2023/06/06 10:41:55;;;;;;;0.10;0.10;;;;;;;15.41;86.21;97651.66;5009949;28;20449;-70
2023/06/06 10:44:26;;;;;;;0.20;0.20;;;;;;;15.50;86.29;97657.56;5010232;28;20077;-70
2023/06/06 10:47:23;;;;;;;0.15;0.15;;;;;;;15.42;85.93;97666.75;4989132;28;20553;-71
2023/06/06 10:50:21;;;;;;;0.13;0.13;;;;;;;15.50;86.15;97662.13;5014254;28;20050;-71
2023/06/06 10:52:51;;;;;;;0.10;0.10;;;;;;;15.51;86.56;97664.59;5011731;28;20085;-71
2023/06/06 10:55:38;;;;;;;0.10;0.10;;;;;;;15.45;86.37;97664.66;5011010;28;20042;-70
2023/06/06 10:58:11;;;;;;;0.10;0.10;;;;;;;15.46;86.21;97666.31;5009979;28;20038;-71
2023/06/06 11:00:42;;;;;;;0.10;0.10;;;;;;;15.41;86.33;97664.28;5007261;28;20053;-72
2023/06/06 11:03:13;;;;;;;0.10;0.10;;;;;;;15.40;86.23;97659.94;5014420;28;20374;-72
2023/06/06 11:06:07;;;;;;;0.10;0.10;;;;;;;15.34;86.57;97652.78;5021642;28;20415;-71
2023/06/06 11:08:36;;;;;;;0.20;0.20;;;;;;;15.35;86.70;97662.50;5017932;28;20555;-71
2023/06/06 11:11:18;;;;;;;0.10;0.10;;;;;;;15.39;86.76;97664.50;5020269;28;20056;-71
2023/06/06 11:13:57;;;;;;;0.10;0.10;;;;;;;15.42;86.11;97656.00;5008504;28;20056;-71
2023/06/06 11:16:52;;;;;;;0.10;0.10;;;;;;;15.48;85.95;97653.44;5011691;28;20464;-72
2023/06/06 11:19:21;;;;;;;0.10;0.10;;;;;;;15.42;86.46;97660.56;5013373;28;20066;-71
2023/06/06 11:21:50;;;;;;;0.20;0.20;;;;;;;15.45;86.50;97670.06;5015334;28;20132;-72
2023/06/06 11:24:19;;;;;;;0.10;0.10;;;;;;;15.36;86.26;97661.47;5014277;28;20103;-72
2023/06/06 11:26:48;;;;;;;0.10;0.10;;;;;;;15.38;86.35;97659.34;5027736;28;20565;-72
2023/06/06 11:29:20;;;;;;;0.10;0.10;;;;;;;15.39;86.63;97661.00;5005768;28;20093;-72
2023/06/06 11:31:48;;;;;;;0.10;0.10;;;;;;;15.45;86.40;97667.34;5014217;28;20493;-72
2023/06/06 11:34:16;;;;;;;0.20;0.20;;;;;;;15.38;86.29;97664.72;5011300;28;20045;-72
2023/06/06 11:36:45;;;;;;;0.10;0.10;;;;;;;15.23;86.42;97667.78;5010012;28;20440;-72
2023/06/06 11:39:14;;;;;;;0.10;0.10;;;;;;;15.30;86.53;97667.72;5017627;28;20382;-72
2023/06/06 11:41:44;;;;;;;0.20;0.20;;;;;;;15.33;87.15;97662.72;5008508;28;20042;-72
2023/06/06 11:44:12;;;;;;;0.10;0.10;;;;;;;15.34;87.24;97659.00;5020238;28;20042;-72